createdAt,value
2018-07-27T00:00:06.045Z,60.60
2018-07-27T00:02:34.443Z,60.60
2018-07-27T00:05:02.853Z,60.90
2018-07-27T00:07:31.409Z,60.90
2018-07-27T00:10:00.178Z,61.50
2018-07-27T00:12:28.863Z,61.40
2018-07-27T00:14:57.581Z,61.50
2018-07-27T00:17:26.391Z,61.60
2018-07-27T00:19:54.790Z,60.60
2018-07-27T00:22:23.494Z,61.50
2018-07-27T00:24:51.899Z,61.40
2018-07-27T00:27:20.450Z,62.20
2018-07-27T00:29:48.844Z,62.90
2018-07-27T00:32:17.438Z,59.80
2018-07-27T00:34:45.939Z,58.20
2018-07-27T00:37:14.531Z,57.30
2018-07-27T00:39:43.465Z,57.50
2018-07-27T00:42:12.027Z,56.40
2018-07-27T00:44:40.392Z,56.20
2018-07-27T00:47:08.850Z,56.20
2018-07-27T00:49:37.280Z,56.20
2018-07-27T00:52:05.867Z,56.40
2018-07-27T00:54:34.393Z,56.80
2018-07-27T00:57:03.141Z,57.10
2018-07-27T00:59:31.564Z,57.50
2018-07-27T01:02:00.309Z,58.00
2018-07-27T01:04:28.748Z,58.60
2018-07-27T01:06:57.168Z,58.90
2018-07-27T01:09:25.616Z,59.30
2018-07-27T01:11:54.035Z,59.60
2018-07-27T01:14:22.810Z,59.70
2018-07-27T01:16:51.320Z,59.90
2018-07-27T01:19:19.739Z,60.00
2018-07-27T01:21:48.558Z,60.10
2018-07-27T01:24:16.997Z,60.10
2018-07-27T01:26:46.285Z,60.20
2018-07-27T01:29:16.898Z,59.90
2018-07-27T01:31:45.499Z,59.80
2018-07-27T01:34:14.498Z,59.80
2018-07-27T01:36:43.925Z,59.90
2018-07-27T01:39:14.112Z,59.70
2018-07-27T01:41:44.424Z,59.60
2018-07-27T01:44:13.593Z,59.40
2018-07-27T01:46:42.197Z,59.70
2018-07-27T01:49:11.212Z,60.10
2018-07-27T01:51:39.732Z,60.10
2018-07-27T01:54:08.134Z,60.40
2018-07-27T01:56:36.615Z,60.90
2018-07-27T01:59:05.114Z,60.80
2018-07-27T02:01:33.811Z,61.00
2018-07-27T02:04:02.251Z,61.50
2018-07-27T02:06:30.803Z,61.50
2018-07-27T02:08:59.731Z,61.30
2018-07-27T02:11:28.573Z,61.10
2018-07-27T02:13:57.045Z,61.40
2018-07-27T02:16:25.591Z,61.70
2018-07-27T02:18:54.663Z,61.50
2018-07-27T02:21:24.002Z,61.10
2018-07-27T02:23:52.443Z,61.70
2018-07-27T02:26:20.961Z,61.80
2018-07-27T02:28:49.311Z,62.20
2018-07-27T02:31:18.752Z,62.40
2018-07-27T02:33:47.207Z,62.60
2018-07-27T02:36:15.903Z,62.00
2018-07-27T02:38:44.315Z,61.40
2018-07-27T02:41:13.821Z,61.60
2018-07-27T02:43:42.285Z,61.60
2018-07-27T02:46:10.786Z,61.50
2018-07-27T02:48:39.189Z,61.40
2018-07-27T02:51:07.678Z,62.50
2018-07-27T02:53:36.143Z,62.70
2018-07-27T02:56:04.619Z,63.10
2018-07-27T02:58:33.052Z,63.40
2018-07-27T03:01:02.550Z,63.40
2018-07-27T03:03:31.459Z,63.70
2018-07-27T03:06:00.287Z,63.60
2018-07-27T03:08:28.642Z,63.80
2018-07-27T03:10:58.232Z,63.80
2018-07-27T03:13:26.741Z,64.30
2018-07-27T03:15:55.580Z,64.20
2018-07-27T03:18:23.992Z,64.30
2018-07-27T03:20:53.911Z,64.80
2018-07-27T03:23:22.268Z,65.00
2018-07-27T03:25:50.686Z,65.00
2018-07-27T03:28:19.123Z,65.30
2018-07-27T03:30:48.670Z,65.30
2018-07-27T03:33:17.076Z,65.50
2018-07-27T03:35:45.579Z,65.60
2018-07-27T03:38:14.039Z,66.40
2018-07-27T03:40:43.672Z,65.70
2018-07-27T03:43:12.375Z,66.10
2018-07-27T03:45:40.769Z,66.30
2018-07-27T03:48:10.141Z,66.10
2018-07-27T03:50:41.209Z,66.40
2018-07-27T03:53:10.265Z,66.60
2018-07-27T03:55:38.706Z,66.30
2018-07-27T03:58:07.499Z,65.80
2018-07-27T04:00:36.863Z,66.00
2018-07-27T04:03:05.696Z,66.20
2018-07-27T04:05:34.182Z,66.20
2018-07-27T04:08:02.642Z,66.50
2018-07-27T04:10:31.754Z,65.70
2018-07-27T04:13:00.344Z,66.30
2018-07-27T04:15:28.838Z,66.30
2018-07-27T04:18:01.261Z,66.80
2018-07-27T04:20:31.368Z,67.10
2018-07-27T04:22:59.835Z,66.90
2018-07-27T04:25:28.343Z,66.50
2018-07-27T04:27:57.073Z,66.80
2018-07-27T04:30:25.500Z,67.10
2018-07-27T04:32:53.873Z,66.70
2018-07-27T04:35:22.307Z,67.40
2018-07-27T04:37:50.724Z,68.20
2018-07-27T04:40:19.109Z,67.70
2018-07-27T04:42:47.552Z,67.80
2018-07-27T04:45:15.996Z,67.20
2018-07-27T04:47:44.337Z,67.50
2018-07-27T04:50:12.855Z,67.80
2018-07-27T04:52:41.588Z,67.90
2018-07-27T04:55:10.283Z,68.20
2018-07-27T04:57:38.740Z,68.70
2018-07-27T05:00:08.018Z,68.50
2018-07-27T05:02:36.461Z,68.90
2018-07-27T05:05:05.190Z,68.70
2018-07-27T05:07:33.557Z,68.30
2018-07-27T05:10:06.561Z,68.80
2018-07-27T05:12:35.393Z,68.90
2018-07-27T05:15:03.939Z,69.10
2018-07-27T05:17:32.683Z,69.10
2018-07-27T05:20:01.143Z,69.40
2018-07-27T05:22:29.557Z,69.00
2018-07-27T05:24:58.035Z,69.40
2018-07-27T05:27:26.807Z,69.20
2018-07-27T05:29:55.489Z,69.70
2018-07-27T05:32:24.227Z,70.20
2018-07-27T05:34:52.594Z,70.10
2018-07-27T05:37:21.058Z,68.90
2018-07-27T05:39:49.503Z,68.50
2018-07-27T05:42:17.950Z,68.20
2018-07-27T05:44:46.377Z,68.00
2018-07-27T05:47:14.881Z,68.20
2018-07-27T05:49:43.463Z,67.80
2018-07-27T05:52:11.822Z,68.40
2018-07-27T05:54:40.259Z,66.20
2018-07-27T05:57:09.054Z,65.90
2018-07-27T06:02:05.643Z,66.50
2018-07-27T06:04:34.049Z,66.20
2018-07-27T06:07:03.064Z,65.60
2018-07-27T06:09:32.238Z,66.40
2018-07-27T06:12:01.309Z,67.20
2018-07-27T06:14:30.197Z,67.00
2018-07-27T06:16:58.779Z,66.60
2018-07-27T06:19:27.177Z,65.50
2018-07-27T06:21:55.623Z,64.90
2018-07-27T06:24:24.212Z,65.20
2018-07-27T06:26:52.809Z,65.80
2018-07-27T06:29:21.272Z,66.20
2018-07-27T06:31:50.146Z,65.90
2018-07-27T06:34:18.642Z,66.20
2018-07-27T06:36:47.271Z,66.90
2018-07-27T06:39:15.724Z,67.40
2018-07-27T06:41:44.264Z,67.50
2018-07-27T06:44:12.744Z,67.80
2018-07-27T06:46:41.137Z,67.50
2018-07-27T06:49:09.570Z,68.30
2018-07-27T06:51:37.961Z,67.30
2018-07-27T06:54:06.787Z,67.40
2018-07-27T06:56:35.247Z,67.20
2018-07-27T06:59:03.931Z,67.40
2018-07-27T07:01:32.967Z,67.30
2018-07-27T07:04:01.560Z,67.40
2018-07-27T07:06:30.612Z,67.60
2018-07-27T07:08:59.015Z,67.60
2018-07-27T07:11:27.458Z,67.80
2018-07-27T07:13:55.974Z,68.10
2018-07-27T07:16:24.412Z,67.30
2018-07-27T07:18:53.154Z,67.40
2018-07-27T07:21:21.535Z,66.60
2018-07-27T07:23:49.981Z,66.60
2018-07-27T07:26:18.367Z,66.60
2018-07-27T07:28:46.873Z,67.00
2018-07-27T07:31:15.273Z,66.80
2018-07-27T07:33:43.724Z,68.10
2018-07-27T07:36:12.454Z,66.30
2018-07-27T07:38:40.963Z,66.10
2018-07-27T07:41:09.749Z,66.20
2018-07-27T07:43:38.421Z,65.40
2018-07-27T07:46:06.822Z,64.50
2018-07-27T07:48:35.327Z,64.20
2018-07-27T07:51:03.763Z,64.40
2018-07-27T07:53:32.862Z,64.10
2018-07-27T07:56:01.637Z,64.10
2018-07-27T07:58:30.907Z,64.00
2018-07-27T08:00:59.415Z,64.00
2018-07-27T08:03:28.631Z,63.80
2018-07-27T08:05:57.053Z,64.30
2018-07-27T08:08:25.554Z,65.00
2018-07-27T08:10:53.971Z,65.20
2018-07-27T08:13:22.423Z,65.60
2018-07-27T08:15:50.843Z,64.30
2018-07-27T08:18:19.284Z,62.40
2018-07-27T08:20:47.680Z,61.30
2018-07-27T08:26:51.182Z,63.40
2018-07-27T08:29:21.738Z,62.10
2018-07-27T08:31:51.047Z,62.80
2018-07-27T08:34:19.828Z,62.20
2018-07-27T08:36:48.927Z,62.20
2018-07-27T08:39:18.836Z,61.60
2018-07-27T08:41:47.807Z,61.30
2018-07-27T08:44:17.419Z,60.60
2018-07-27T08:46:45.935Z,59.70
2018-07-27T08:49:14.278Z,59.50
2018-07-27T08:51:42.740Z,60.20
2018-07-27T08:54:11.186Z,60.40
2018-07-27T08:56:40.046Z,60.10
2018-07-27T08:59:08.851Z,60.30
2018-07-27T09:01:37.315Z,60.30
2018-07-27T09:04:06.112Z,60.90
2018-07-27T09:06:34.575Z,61.40
2018-07-27T09:09:07.051Z,60.60
2018-07-27T09:11:35.769Z,60.70
2018-07-27T09:14:04.571Z,59.80
2018-07-27T09:16:34.115Z,59.60
2018-07-27T09:19:02.543Z,59.80
2018-07-27T09:21:31.396Z,59.60
2018-07-27T09:23:59.801Z,59.00
2018-07-27T09:26:28.473Z,58.70
2018-07-27T09:28:56.940Z,58.70
2018-07-27T09:31:26.305Z,58.60
2018-07-27T09:33:54.793Z,59.10
2018-07-27T09:36:23.214Z,58.30
2018-07-27T09:38:51.642Z,58.40
2018-07-27T09:42:50.726Z,59.00
2018-07-27T09:45:19.194Z,59.50
2018-07-27T09:47:47.597Z,59.60
2018-07-27T09:50:16.122Z,59.30
2018-07-27T09:52:44.511Z,59.10
2018-07-27T09:55:13.117Z,59.00
2018-07-27T09:57:41.632Z,58.60
2018-07-27T10:00:10.099Z,57.30
2018-07-27T10:02:38.479Z,57.30
2018-07-27T10:05:07.090Z,57.80
2018-07-27T10:07:35.719Z,57.70
2018-07-27T10:10:05.079Z,57.60
2018-07-27T10:12:33.476Z,57.70
2018-07-27T10:15:02.617Z,58.10
2018-07-27T10:17:31.035Z,57.00
2018-07-27T10:19:59.447Z,57.30
2018-07-27T10:24:56.084Z,56.50
2018-07-27T10:27:24.478Z,57.40
2018-07-27T10:29:52.997Z,57.40
2018-07-27T10:32:21.473Z,56.80
2018-07-27T10:34:49.903Z,56.60
2018-07-27T10:37:18.350Z,56.10
2018-07-27T10:39:46.741Z,56.10
2018-07-27T10:42:15.104Z,56.00
2018-07-27T10:44:43.646Z,55.60
2018-07-27T10:47:12.071Z,55.00
2018-07-27T10:49:40.506Z,55.50
2018-07-27T10:52:09.008Z,54.70
2018-07-27T10:54:37.553Z,56.20
2018-07-27T10:57:06.621Z,55.70
2018-07-27T10:59:35.222Z,56.70
2018-07-27T11:02:04.459Z,57.50
2018-07-27T11:04:33.425Z,57.10
2018-07-27T11:07:02.674Z,56.50
2018-07-27T11:09:31.699Z,57.60
2018-07-27T11:12:00.065Z,58.10
2018-07-27T11:14:28.572Z,57.40
2018-07-27T11:16:56.976Z,55.90
2018-07-27T11:19:25.413Z,57.80
2018-07-27T11:21:54.007Z,57.10
2018-07-27T11:24:22.364Z,56.20
2018-07-27T11:26:50.750Z,57.20
2018-07-27T11:29:19.340Z,57.10
2018-07-27T11:31:47.840Z,56.70
2018-07-27T11:34:16.290Z,55.10
2018-07-27T11:36:44.629Z,56.90
2018-07-27T11:39:13.395Z,56.60
2018-07-27T11:41:41.866Z,56.60
2018-07-27T11:44:10.252Z,57.50
2018-07-27T11:46:38.649Z,57.70
2018-07-27T11:49:07.052Z,58.40
2018-07-27T11:51:35.478Z,56.90
2018-07-27T11:54:04.198Z,56.10
2018-07-27T11:56:33.463Z,55.30
2018-07-27T11:59:01.971Z,54.50
2018-07-27T12:01:31.173Z,54.20
2018-07-27T12:03:59.740Z,54.10
2018-07-27T12:06:28.117Z,53.70
2018-07-27T12:08:56.540Z,53.50
2018-07-27T12:11:24.992Z,54.70
2018-07-27T12:13:53.432Z,53.90
2018-07-27T12:16:21.955Z,53.90
2018-07-27T12:18:50.459Z,53.80
2018-07-27T12:21:19.343Z,52.80
2018-07-27T12:23:47.864Z,53.90
2018-07-27T12:26:16.266Z,52.90
2018-07-27T12:28:44.631Z,53.40
2018-07-27T12:31:13.027Z,53.10
2018-07-27T12:33:41.371Z,52.70
2018-07-27T12:36:10.193Z,52.80
2018-07-27T12:38:38.619Z,52.60
2018-07-27T12:41:07.438Z,52.90
2018-07-27T12:43:35.876Z,52.60
2018-07-27T12:46:05.350Z,53.00
2018-07-27T12:48:34.449Z,51.50
2018-07-27T12:51:03.511Z,51.80
2018-07-27T12:53:32.172Z,52.20
2018-07-27T12:56:00.837Z,49.80
2018-07-27T12:58:29.325Z,47.50
2018-07-27T13:00:57.790Z,50.40
2018-07-27T13:03:26.336Z,50.90
2018-07-27T13:05:54.856Z,51.00
2018-07-27T13:08:23.330Z,50.90
2018-07-27T13:10:51.755Z,50.70
2018-07-27T13:13:20.527Z,50.80
2018-07-27T13:15:49.121Z,50.00
2018-07-27T13:18:17.597Z,50.40
2018-07-27T13:20:54.021Z,51.40
2018-07-27T13:23:23.032Z,49.90
2018-07-27T13:26:26.945Z,49.90
2018-07-27T13:28:41.081Z,51.20
2018-07-27T13:31:11.629Z,51.80
2018-07-27T13:33:49.111Z,52.00
2018-07-27T13:36:17.488Z,51.20
2018-07-27T13:38:45.934Z,50.10
2018-07-27T13:41:14.701Z,50.10
2018-07-27T13:43:43.302Z,48.80
2018-07-27T13:46:12.069Z,50.50
2018-07-27T13:48:40.638Z,50.20
2018-07-27T13:51:09.507Z,50.50
2018-07-27T13:53:38.327Z,51.00
2018-07-27T13:56:06.777Z,50.70
2018-07-27T13:58:35.896Z,50.20
2018-07-27T14:01:05.070Z,49.40
2018-07-27T14:03:33.851Z,48.30
2018-07-27T14:06:02.275Z,48.40
2018-07-27T14:08:30.709Z,48.70
2018-07-27T14:10:59.671Z,48.70
2018-07-27T14:13:28.130Z,49.30
2018-07-27T14:15:56.596Z,49.80
2018-07-27T14:18:25.094Z,49.80
2018-07-27T14:20:53.505Z,49.80
2018-07-27T14:23:21.902Z,50.40
2018-07-27T14:25:50.343Z,51.80
2018-07-27T14:28:18.799Z,54.30
2018-07-27T14:30:48.229Z,54.60
2018-07-27T14:33:16.641Z,54.70
2018-07-27T14:41:31.305Z,58.20
2018-07-27T14:43:59.696Z,57.50
2018-07-27T14:46:28.074Z,60.70
2018-07-27T14:48:56.467Z,57.10
2018-07-27T14:51:24.872Z,59.00
2018-07-27T14:53:53.285Z,57.00
2018-07-27T14:56:21.794Z,57.00
2018-07-27T14:58:50.268Z,58.60
2018-07-27T15:01:18.930Z,59.90
2018-07-27T15:03:47.669Z,58.40
2018-07-27T15:06:16.165Z,59.50
2018-07-27T15:08:44.528Z,59.70
2018-07-27T15:11:14.247Z,59.80
2018-07-27T15:13:42.703Z,61.50
2018-07-27T15:16:11.337Z,60.50
2018-07-27T15:18:39.893Z,59.80
2018-07-27T15:21:08.339Z,59.10
2018-07-27T15:23:36.706Z,58.40
2018-07-27T15:26:05.163Z,58.70
2018-07-27T15:28:34.154Z,58.20
2018-07-27T15:31:02.579Z,56.90
2018-07-27T15:33:32.254Z,57.00
2018-07-27T15:36:01.200Z,56.90
2018-07-27T15:38:29.761Z,56.80
2018-07-27T15:40:58.322Z,57.50
2018-07-27T15:43:26.660Z,58.50
2018-07-27T15:45:55.119Z,59.10
2018-07-27T15:48:23.859Z,59.40
2018-07-27T15:50:52.523Z,60.40
2018-07-27T15:53:21.291Z,60.00
2018-07-27T15:55:49.738Z,59.40
2018-07-27T15:58:18.210Z,59.60
2018-07-27T16:00:46.772Z,59.80
2018-07-27T16:03:15.241Z,60.40
2018-07-27T16:05:43.723Z,60.10
2018-07-27T16:08:12.157Z,61.20
2018-07-27T16:10:40.607Z,63.20
2018-07-27T16:13:09.031Z,63.50
2018-07-27T16:15:37.477Z,63.30
2018-07-27T16:18:05.938Z,62.00
2018-07-27T16:20:34.564Z,61.80
2018-07-27T16:23:02.868Z,61.90
2018-07-27T16:25:31.829Z,64.70
2018-07-27T16:28:00.587Z,62.50
2018-07-27T16:30:29.038Z,62.10
2018-07-27T16:32:57.474Z,61.60
2018-07-27T16:35:26.147Z,61.40
2018-07-27T16:37:54.477Z,60.40
2018-07-27T16:40:22.944Z,60.60
2018-07-27T16:42:51.326Z,60.60
2018-07-27T16:45:19.762Z,60.40
2018-07-27T16:47:48.138Z,59.80
2018-07-27T16:50:16.586Z,59.60
2018-07-27T16:52:44.967Z,59.80
2018-07-27T16:55:13.440Z,60.80
2018-07-27T16:57:41.863Z,60.40
2018-07-27T17:00:10.936Z,60.30
2018-07-27T17:02:39.365Z,60.20
2018-07-27T17:05:07.802Z,60.10
2018-07-27T18:22:29.479Z,59.80
2018-07-27T18:24:59.549Z,59.40
2018-07-27T18:27:28.145Z,59.30
2018-07-27T18:29:56.641Z,59.20
2018-07-27T18:32:25.045Z,59.30
2018-07-27T18:34:53.476Z,59.30
2018-07-27T18:37:21.879Z,59.20
2018-07-27T18:39:50.365Z,59.20
2018-07-27T18:42:18.827Z,59.20
2018-07-27T18:44:47.323Z,58.90
2018-07-27T18:47:15.767Z,58.50
2018-07-27T18:49:44.357Z,58.50
2018-07-27T18:52:13.905Z,58.00
2018-07-27T18:54:42.281Z,58.00
2018-07-27T18:57:11.359Z,57.80
2018-07-27T18:59:39.871Z,57.70
2018-07-27T19:02:08.263Z,57.40
2018-07-27T19:04:36.808Z,58.10
2018-07-27T19:07:05.696Z,57.40
2018-07-27T19:09:34.149Z,57.50
2018-07-27T19:12:02.598Z,57.70
2018-07-27T19:14:31.158Z,58.10
2018-07-27T19:16:59.555Z,58.10
2018-07-27T19:19:28.068Z,58.20
2018-07-27T19:21:56.459Z,57.80
2018-07-27T19:24:24.865Z,58.10
2018-07-27T19:26:53.240Z,58.00
2018-07-27T19:29:21.618Z,57.80
2018-07-27T19:31:50.047Z,57.50
2018-07-27T19:34:18.748Z,57.60
2018-07-27T19:36:47.107Z,57.60
2018-07-27T19:39:15.773Z,57.00
2018-07-27T19:41:44.264Z,57.00
2018-07-27T19:44:13.390Z,56.90
2018-07-27T19:46:42.403Z,57.00
2018-07-27T19:49:11.341Z,57.00
2018-07-27T19:51:39.924Z,57.00
2018-07-27T19:54:08.457Z,57.20
2018-07-27T19:56:37.186Z,57.10
2018-07-27T19:59:05.779Z,57.00
2018-07-27T20:01:34.483Z,57.00
2018-07-27T20:04:02.966Z,57.20
2018-07-27T20:06:31.434Z,57.10
2018-07-27T20:08:59.864Z,57.20
2018-07-27T20:11:28.611Z,57.00
2018-07-27T20:13:57.027Z,56.90
2018-07-27T20:18:53.675Z,57.00
2018-07-27T20:21:22.078Z,56.90
2018-07-27T20:23:50.552Z,57.00
2018-07-27T20:26:19.009Z,57.00
2018-07-27T20:28:47.401Z,56.90
2018-07-27T20:33:43.902Z,56.70
2018-07-27T20:36:12.885Z,56.70
2018-07-27T20:38:41.379Z,56.90
2018-07-27T20:41:09.825Z,56.70
2018-07-27T20:43:38.363Z,56.50
2018-07-27T20:46:06.747Z,56.30
2018-07-27T20:48:35.274Z,56.20
2018-07-27T20:51:03.922Z,56.90
2018-07-27T20:53:32.466Z,56.40
2018-07-27T20:56:00.846Z,56.80
2018-07-27T20:58:29.395Z,56.80
2018-07-27T21:00:57.758Z,56.40
2018-07-27T21:03:26.189Z,56.30
2018-07-27T21:05:54.811Z,56.50
2018-07-27T21:08:23.360Z,56.80
2018-07-27T21:10:51.798Z,56.40
2018-07-27T21:13:21.150Z,56.50
2018-07-27T21:15:49.857Z,56.40
2018-07-27T21:18:18.383Z,56.40
2018-07-27T21:20:46.724Z,56.70
2018-07-27T21:23:15.216Z,57.30
2018-07-27T21:25:43.669Z,57.10
2018-07-27T21:28:12.495Z,56.70
2018-07-27T21:30:41.522Z,57.20
2018-07-27T21:33:09.948Z,56.40
2018-07-27T21:35:41.288Z,56.60
2018-07-27T21:38:10.200Z,56.60
2018-07-27T21:40:39.105Z,57.20
2018-07-27T21:43:07.527Z,56.80
2018-07-27T21:45:35.929Z,56.50
2018-07-27T21:48:05.138Z,56.30
2018-07-27T21:50:33.976Z,56.10
2018-07-27T21:53:02.474Z,56.00
2018-07-27T21:55:31.612Z,55.90
2018-07-27T21:58:00.542Z,55.80
2018-07-27T22:00:32.756Z,55.80
2018-07-27T22:03:02.066Z,55.80
2018-07-27T22:05:30.522Z,55.60
2018-07-27T22:07:58.992Z,55.60
2018-07-27T22:10:27.751Z,55.70
2018-07-27T22:12:56.799Z,55.50
2018-07-27T22:15:26.202Z,55.20
2018-07-27T22:17:54.672Z,55.10
2018-07-27T22:20:24.286Z,55.20
2018-07-27T22:22:52.693Z,55.20
2018-07-27T22:25:21.094Z,55.30
2018-07-27T22:27:49.979Z,55.20
2018-07-27T22:30:18.560Z,55.20
2018-07-27T23:57:45.159Z,54.80
